createdAt,value
2023-02-19T00:01:27.841Z,23.20
2023-02-19T00:04:01.648Z,23.20
2023-02-19T00:06:32.298Z,23.20
2023-02-19T00:09:03.284Z,23.00
2023-02-19T00:11:34.309Z,23.20
2023-02-19T00:14:03.777Z,23.30
2023-02-19T00:16:34.886Z,23.50
2023-02-19T00:19:05.591Z,23.60
2023-02-19T00:21:34.661Z,23.70
2023-02-19T00:24:05.680Z,23.60
2023-02-19T00:26:35.806Z,23.30
2023-02-19T00:29:04.122Z,23.20
2023-02-19T00:31:36.807Z,23.10
2023-02-19T00:34:06.956Z,23.10
2023-02-19T00:36:37.633Z,23.00
2023-02-19T00:39:07.293Z,22.90
2023-02-19T00:41:35.692Z,22.90
2023-02-19T00:44:08.054Z,22.90
2023-02-19T00:46:42.508Z,22.90
2023-02-19T00:49:18.864Z,23.00
2023-02-19T00:51:48.264Z,23.10
2023-02-19T00:54:17.166Z,23.10
2023-02-19T00:56:45.695Z,23.10
2023-02-19T00:59:13.964Z,23.10
2023-02-19T01:01:43.263Z,23.10
2023-02-19T01:04:13.291Z,23.20
2023-02-19T01:06:41.698Z,23.20
2023-02-19T01:09:10.121Z,23.00
2023-02-19T01:11:38.607Z,23.10
2023-02-19T01:14:07.329Z,23.20
2023-02-19T01:16:35.907Z,23.40
2023-02-19T01:19:04.292Z,23.50
2023-02-19T01:21:33.007Z,23.70
2023-02-19T01:24:01.552Z,23.70
2023-02-19T01:26:32.412Z,23.50
2023-02-19T01:29:02.087Z,23.30
2023-02-19T01:31:31.150Z,23.20
2023-02-19T01:34:02.251Z,23.10
2023-02-19T01:36:33.561Z,23.10
2023-02-19T01:39:03.326Z,23.00
2023-02-19T01:41:33.109Z,22.90
2023-02-19T01:44:03.976Z,22.90
2023-02-19T01:46:37.730Z,22.90
2023-02-19T01:49:27.618Z,22.90
2023-02-19T01:52:14.130Z,22.90
2023-02-19T01:54:44.672Z,22.90
2023-02-19T01:57:19.823Z,23.00
2023-02-19T01:59:51.796Z,23.00
2023-02-19T02:02:20.229Z,23.10
2023-02-19T02:04:48.972Z,23.10
2023-02-19T02:07:17.617Z,23.10
2023-02-19T02:09:45.997Z,23.00
2023-02-19T02:12:14.695Z,23.00
2023-02-19T02:14:46.793Z,23.20
2023-02-19T02:17:29.150Z,23.30
2023-02-19T02:20:15.818Z,23.50
2023-02-19T02:23:04.650Z,23.60
2023-02-19T02:25:52.797Z,23.70
2023-02-19T02:28:36.231Z,23.50
2023-02-19T02:31:39.572Z,23.30
2023-02-19T02:34:12.941Z,23.10
2023-02-19T02:36:44.697Z,23.00
2023-02-19T02:39:20.917Z,23.00
2023-02-19T02:41:58.780Z,22.90
2023-02-19T02:44:35.635Z,22.90
2023-02-19T02:47:07.280Z,22.90
2023-02-19T02:49:36.118Z,22.90
2023-02-19T02:52:04.198Z,22.90
2023-02-19T02:54:34.701Z,22.90
2023-02-19T02:57:09.112Z,23.00
2023-02-19T02:59:44.727Z,23.00
2023-02-19T03:02:23.081Z,23.10
2023-02-19T03:05:04.182Z,23.20
2023-02-19T03:07:46.035Z,23.30
2023-02-19T03:10:25.476Z,23.40
2023-02-19T03:12:57.162Z,23.50
2023-02-19T03:15:30.638Z,23.60
2023-02-19T03:18:04.748Z,23.80
2023-02-19T03:20:37.745Z,23.70
2023-02-19T03:23:09.818Z,23.50
2023-02-19T03:25:40.098Z,23.40
2023-02-19T03:28:11.469Z,23.40
2023-02-19T03:30:49.993Z,23.60
2023-02-19T03:33:20.648Z,23.70
2023-02-19T03:35:59.026Z,23.70
2023-02-19T03:38:48.770Z,23.50
2023-02-19T03:41:32.323Z,23.30
2023-02-19T03:44:04.330Z,23.10
2023-02-19T03:46:43.275Z,23.00
2023-02-19T03:49:18.968Z,22.90
2023-02-19T03:51:56.642Z,22.90
2023-02-19T03:54:51.209Z,22.90
2023-02-19T03:57:57.044Z,22.90
2023-02-19T04:00:33.865Z,22.90
2023-02-19T04:03:30.475Z,22.90
2023-02-19T04:06:11.161Z,22.90
2023-02-19T04:08:43.456Z,23.00
2023-02-19T04:11:14.380Z,23.00
2023-02-19T04:13:51.931Z,23.00
2023-02-19T04:16:25.061Z,23.20
2023-02-19T04:18:57.814Z,23.30
2023-02-19T04:21:27.376Z,23.40
2023-02-19T04:23:58.309Z,23.50
2023-02-19T04:26:26.702Z,23.60
2023-02-19T04:28:55.405Z,23.80
2023-02-19T04:31:23.772Z,23.80
2023-02-19T04:33:52.136Z,23.60
2023-02-19T04:36:20.331Z,23.40
2023-02-19T04:38:48.651Z,23.40
2023-02-19T04:41:16.710Z,23.50
2023-02-19T04:43:45.028Z,23.60
2023-02-19T04:46:13.398Z,23.70
2023-02-19T04:48:41.517Z,23.90
2023-02-19T04:51:11.121Z,23.80
2023-02-19T04:53:39.735Z,23.40
2023-02-19T04:56:14.333Z,23.20
2023-02-19T04:58:44.200Z,23.20
2023-02-19T05:01:12.897Z,23.10
2023-02-19T05:03:41.442Z,23.00
2023-02-19T05:06:12.961Z,22.90
2023-02-19T05:08:41.453Z,22.80
2023-02-19T05:11:12.074Z,22.80
2023-02-19T05:13:41.110Z,22.80
2023-02-19T05:16:14.539Z,22.70
2023-02-19T05:18:44.568Z,22.70
2023-02-19T05:21:13.825Z,22.70
2023-02-19T05:23:42.459Z,22.60
2023-02-19T05:26:16.696Z,22.70
2023-02-19T05:28:49.681Z,22.90
2023-02-19T05:31:18.651Z,23.10
2023-02-19T05:33:46.968Z,23.20
2023-02-19T05:36:15.479Z,23.40
2023-02-19T05:38:44.103Z,23.50
2023-02-19T05:41:16.245Z,23.60
2023-02-19T05:43:46.079Z,23.70
2023-02-19T05:46:17.544Z,23.80
2023-02-19T05:48:46.324Z,23.70
2023-02-19T05:51:17.738Z,23.40
2023-02-19T05:53:46.897Z,23.20
2023-02-19T05:56:36.447Z,23.10
2023-02-19T05:59:19.302Z,23.00
2023-02-19T06:01:48.183Z,22.90
2023-02-19T06:04:16.805Z,22.90
2023-02-19T06:06:45.490Z,22.80
2023-02-19T06:09:13.746Z,22.80
2023-02-19T06:11:41.996Z,22.80
2023-02-19T06:14:14.693Z,22.80
2023-02-19T06:16:43.071Z,22.80
2023-02-19T06:19:11.314Z,22.90
2023-02-19T06:21:39.561Z,22.90
2023-02-19T06:24:09.151Z,22.90
2023-02-19T06:26:37.808Z,22.90
2023-02-19T06:29:05.837Z,23.10
2023-02-19T06:31:34.143Z,23.20
2023-02-19T06:34:05.850Z,23.30
2023-02-19T06:36:34.253Z,23.40
2023-02-19T06:39:04.203Z,23.50
2023-02-19T06:41:32.819Z,23.60
2023-02-19T06:44:00.804Z,23.70
2023-02-19T06:46:29.195Z,23.70
2023-02-19T06:48:57.683Z,23.50
2023-02-19T06:51:26.908Z,23.20
2023-02-19T06:53:55.242Z,23.20
2023-02-19T06:56:40.586Z,23.40
2023-02-19T06:59:14.179Z,23.50
2023-02-19T07:01:42.601Z,23.60
2023-02-19T07:04:11.141Z,23.80
2023-02-19T07:06:39.650Z,23.70
2023-02-19T07:09:09.089Z,23.40
2023-02-19T07:11:39.945Z,23.20
2023-02-19T07:14:13.953Z,23.00
2023-02-19T07:16:42.377Z,22.90
2023-02-19T07:19:11.328Z,22.80
2023-02-19T07:21:39.901Z,23.00
2023-02-19T07:24:08.669Z,23.20
2023-02-19T07:26:37.109Z,23.30
2023-02-19T07:29:05.771Z,23.40
2023-02-19T07:31:33.735Z,23.50
2023-02-19T07:34:02.124Z,23.60
2023-02-19T07:36:30.322Z,23.70
2023-02-19T07:39:01.231Z,23.70
2023-02-19T07:41:29.743Z,23.80
2023-02-19T07:43:59.849Z,23.60
2023-02-19T07:46:28.388Z,23.30
2023-02-19T07:48:56.709Z,23.10
2023-02-19T07:51:25.063Z,23.00
2023-02-19T07:53:53.355Z,23.00
2023-02-19T07:56:21.993Z,22.90
2023-02-19T07:58:50.095Z,22.90
2023-02-19T08:01:20.806Z,22.90
2023-02-19T08:03:50.533Z,22.80
2023-02-19T08:06:19.007Z,22.80
2023-02-19T08:08:47.181Z,22.80
2023-02-19T08:11:15.563Z,22.80
2023-02-19T08:13:43.774Z,22.90
2023-02-19T08:16:20.300Z,22.90
2023-02-19T08:18:52.680Z,22.90
2023-02-19T08:21:21.082Z,22.90
2023-02-19T08:23:50.998Z,22.90
2023-02-19T08:26:19.554Z,23.00
2023-02-19T08:28:48.651Z,23.20
2023-02-19T08:31:23.568Z,23.30
2023-02-19T08:33:54.723Z,23.40
2023-02-19T08:36:23.071Z,23.50
2023-02-19T08:38:54.240Z,23.60
2023-02-19T08:41:22.676Z,23.70
2023-02-19T08:43:51.347Z,23.80
2023-02-19T08:46:19.360Z,23.60
2023-02-19T08:48:47.659Z,23.40
2023-02-19T08:51:15.909Z,23.40
2023-02-19T08:53:44.095Z,23.40
2023-02-19T08:56:15.907Z,23.50
2023-02-19T08:58:44.768Z,23.60
2023-02-19T09:01:15.734Z,23.70
2023-02-19T09:03:44.521Z,23.80
2023-02-19T09:06:19.121Z,23.80
2023-02-19T09:08:47.699Z,23.60
2023-02-19T09:11:15.930Z,23.40
2023-02-19T09:13:44.659Z,23.30
2023-02-19T09:16:12.739Z,23.20
2023-02-19T09:18:41.168Z,23.10
2023-02-19T09:21:09.726Z,23.10
2023-02-19T09:23:37.977Z,23.00
2023-02-19T09:26:07.538Z,23.00
2023-02-19T09:28:35.952Z,23.00
2023-02-19T09:31:09.499Z,23.00
2023-02-19T09:33:38.242Z,23.00
2023-02-19T09:36:06.856Z,23.00
2023-02-19T09:38:35.212Z,23.00
2023-02-19T09:41:33.622Z,22.90
2023-02-19T09:44:04.508Z,22.90
2023-02-19T09:47:03.638Z,22.90
2023-02-19T09:49:41.798Z,22.90
2023-02-19T09:52:39.448Z,22.80
2023-02-19T09:55:30.970Z,22.70
2023-02-19T09:58:02.388Z,22.80
2023-02-19T10:00:34.690Z,22.70
2023-02-19T10:03:42.869Z,22.70
2023-02-19T10:06:26.167Z,22.70
2023-02-19T10:09:00.775Z,22.60
2023-02-19T10:11:29.216Z,22.70
2023-02-19T10:14:26.972Z,22.80
2023-02-19T10:16:55.970Z,22.80
2023-02-19T10:19:24.360Z,22.90
2023-02-19T10:21:52.844Z,22.80
2023-02-19T10:24:27.854Z,22.80
2023-02-19T10:26:57.583Z,22.80
2023-02-19T10:29:25.839Z,23.20
2023-02-19T10:32:16.789Z,23.60
2023-02-19T10:34:45.408Z,23.90
2023-02-19T10:37:22.622Z,24.10
2023-02-19T10:39:51.524Z,24.20
2023-02-19T10:42:24.313Z,24.40
2023-02-19T10:44:59.546Z,24.50
2023-02-19T10:47:30.286Z,24.60
2023-02-19T10:50:02.133Z,24.70
2023-02-19T10:52:35.663Z,24.80
2023-02-19T10:55:27.623Z,24.90
2023-02-19T10:57:57.594Z,25.00
2023-02-19T11:00:30.976Z,25.00
2023-02-19T11:03:22.079Z,25.10
2023-02-19T11:06:05.869Z,25.20
2023-02-19T11:08:44.551Z,25.20
2023-02-19T11:11:41.184Z,25.30
2023-02-19T11:14:19.574Z,25.30
2023-02-19T11:16:56.370Z,25.40
2023-02-19T11:19:36.626Z,25.40
2023-02-19T11:22:20.022Z,25.50
2023-02-19T11:24:56.199Z,25.50
2023-02-19T11:27:26.287Z,25.50
2023-02-19T11:29:54.786Z,25.50
2023-02-19T11:32:29.515Z,25.60
2023-02-19T11:35:23.501Z,25.60
2023-02-19T11:38:02.619Z,25.70
2023-02-19T11:41:13.958Z,25.70
2023-02-19T11:44:13.082Z,25.20
2023-02-19T11:46:58.717Z,24.60
2023-02-19T11:49:38.952Z,24.50
2023-02-19T11:52:31.335Z,24.80
2023-02-19T11:55:31.693Z,25.10
2023-02-19T11:58:18.571Z,25.30
2023-02-19T12:00:59.722Z,25.40
2023-02-19T12:03:55.787Z,25.40
2023-02-19T12:06:28.146Z,25.50
2023-02-19T12:09:26.930Z,25.50
2023-02-19T12:12:32.332Z,25.60
2023-02-19T12:15:29.218Z,25.60
2023-02-19T12:18:18.345Z,25.70
2023-02-19T12:21:11.942Z,25.70
2023-02-19T12:23:56.113Z,25.70
2023-02-19T12:26:33.478Z,25.80
2023-02-19T12:29:25.399Z,25.80
2023-02-19T12:32:10.385Z,25.80
2023-02-19T12:35:06.006Z,25.80
2023-02-19T12:38:09.535Z,25.90
2023-02-19T12:41:02.793Z,25.80
2023-02-19T12:43:32.837Z,25.90
2023-02-19T12:46:30.490Z,26.00
2023-02-19T12:49:13.256Z,26.00
2023-02-19T12:51:50.489Z,26.00
2023-02-19T12:54:42.095Z,26.00
2023-02-19T12:57:13.598Z,26.10
2023-02-19T13:00:00.364Z,26.00
2023-02-19T13:02:36.515Z,26.00
2023-02-19T13:05:32.447Z,26.20
2023-02-19T13:08:08.431Z,26.20
2023-02-19T13:10:45.618Z,26.20
2023-02-19T13:13:23.885Z,26.30
2023-02-19T13:15:54.505Z,26.30
2023-02-19T13:18:34.917Z,26.30
2023-02-19T13:21:04.380Z,26.30
2023-02-19T13:23:33.936Z,26.30
2023-02-19T13:26:26.612Z,26.30
2023-02-19T13:29:09.848Z,26.30
2023-02-19T13:32:03.185Z,26.30
2023-02-19T13:34:54.636Z,26.30
2023-02-19T13:37:24.366Z,26.30
2023-02-19T13:39:55.588Z,26.30
2023-02-19T13:42:34.703Z,26.30
2023-02-19T13:45:07.836Z,26.30
2023-02-19T13:48:02.112Z,26.30
2023-02-19T13:50:32.522Z,26.30
2023-02-19T13:53:02.538Z,26.40
2023-02-19T13:55:48.760Z,26.40
2023-02-19T13:58:39.462Z,26.40
2023-02-19T14:01:12.497Z,26.50
2023-02-19T14:03:53.675Z,26.60
2023-02-19T14:06:22.883Z,26.60
2023-02-19T14:09:01.591Z,26.60
2023-02-19T14:11:44.838Z,26.60
2023-02-19T14:14:37.490Z,26.60
2023-02-19T14:17:43.192Z,26.70
2023-02-19T14:20:17.595Z,26.70
2023-02-19T14:22:51.841Z,26.70
2023-02-19T14:25:29.003Z,26.70
2023-02-19T14:28:10.868Z,26.80
2023-02-19T14:30:48.349Z,26.80
2023-02-19T14:33:18.841Z,26.80
2023-02-19T14:35:52.064Z,26.80
2023-02-19T14:38:28.885Z,26.80
2023-02-19T14:40:57.606Z,26.90
2023-02-19T14:43:27.989Z,26.90
2023-02-19T14:46:00.679Z,26.90
2023-02-19T14:48:40.188Z,26.90
2023-02-19T14:51:14.955Z,27.00
2023-02-19T14:53:45.496Z,27.00
2023-02-19T14:56:29.958Z,27.00
2023-02-19T14:59:24.258Z,27.00
2023-02-19T15:02:16.910Z,27.00
2023-02-19T15:04:45.374Z,27.10
2023-02-19T15:07:33.156Z,27.10
2023-02-19T15:10:05.216Z,27.10
2023-02-19T15:12:56.745Z,27.10
2023-02-19T15:15:40.652Z,27.10
2023-02-19T15:18:14.713Z,27.10
2023-02-19T15:20:43.749Z,27.10
2023-02-19T15:23:23.808Z,27.20
2023-02-19T15:25:53.099Z,27.20
2023-02-19T15:28:21.431Z,27.20
2023-02-19T15:30:50.345Z,27.20
2023-02-19T15:33:21.086Z,27.20
2023-02-19T15:35:52.398Z,27.20
2023-02-19T15:38:21.337Z,27.20
2023-02-19T15:40:50.860Z,27.30
2023-02-19T15:43:29.487Z,27.20
2023-02-19T15:46:05.355Z,27.30
2023-02-19T15:48:42.457Z,27.30
2023-02-19T15:51:19.512Z,27.30
2023-02-19T15:53:58.980Z,27.30
2023-02-19T15:56:36.684Z,27.30
2023-02-19T15:59:17.410Z,27.30
2023-02-19T16:01:46.059Z,27.30
2023-02-19T16:04:19.165Z,27.30
2023-02-19T16:06:59.898Z,27.40
2023-02-19T16:09:37.113Z,27.40
2023-02-19T16:12:24.034Z,27.40
2023-02-19T16:14:52.480Z,27.40
2023-02-19T16:17:21.353Z,27.40
2023-02-19T16:19:54.054Z,27.40
2023-02-19T16:22:32.004Z,27.40
2023-02-19T16:25:03.573Z,27.50
2023-02-19T16:27:31.877Z,27.40
2023-02-19T16:30:07.466Z,27.50
2023-02-19T16:32:35.809Z,27.50
2023-02-19T16:35:04.092Z,27.50
2023-02-19T16:37:35.774Z,27.50
2023-02-19T16:40:10.138Z,27.60
2023-02-19T16:43:07.873Z,27.50
2023-02-19T16:45:36.308Z,27.50
2023-02-19T16:48:05.903Z,27.60
2023-02-19T16:50:37.678Z,27.60
2023-02-19T16:53:05.968Z,27.60
2023-02-19T16:55:34.939Z,27.60
2023-02-19T16:58:03.335Z,27.60
2023-02-19T17:00:31.872Z,27.60
2023-02-19T17:03:04.309Z,27.60
2023-02-19T17:05:32.835Z,27.70
2023-02-19T17:08:00.822Z,27.70
2023-02-19T17:10:29.586Z,27.70
2023-02-19T17:12:57.771Z,27.70
2023-02-19T17:15:26.207Z,27.70
2023-02-19T17:17:54.632Z,27.60
2023-02-19T17:20:26.962Z,27.70
2023-02-19T17:22:56.302Z,27.70
2023-02-19T17:25:24.950Z,27.70
2023-02-19T17:27:53.490Z,27.70
2023-02-19T17:30:26.329Z,27.70
2023-02-19T17:32:54.785Z,27.70
2023-02-19T17:35:23.238Z,27.70
2023-02-19T17:37:53.404Z,27.70
2023-02-19T17:40:33.554Z,27.80
2023-02-19T17:43:02.692Z,27.80
2023-02-19T17:45:31.238Z,27.70
2023-02-19T17:48:00.158Z,27.80
2023-02-19T17:50:31.811Z,27.80
2023-02-19T17:53:00.286Z,27.70
2023-02-19T17:55:28.652Z,27.80
2023-02-19T17:57:57.074Z,27.80
2023-02-19T18:00:27.786Z,27.80
2023-02-19T18:02:56.713Z,27.80
2023-02-19T18:05:25.430Z,27.80
2023-02-19T18:07:53.738Z,27.80
2023-02-19T18:10:23.662Z,27.80
2023-02-19T18:12:52.203Z,27.80
2023-02-19T18:15:21.994Z,27.80
2023-02-19T18:17:50.390Z,27.80
2023-02-19T18:20:20.101Z,27.80
2023-02-19T18:22:48.907Z,27.80
2023-02-19T18:25:18.061Z,27.80
2023-02-19T18:27:46.685Z,27.80
2023-02-19T18:30:16.468Z,27.80
2023-02-19T18:32:45.666Z,27.80
2023-02-19T18:35:13.904Z,27.80
2023-02-19T18:37:42.229Z,27.80
2023-02-19T18:40:11.218Z,27.80
2023-02-19T18:42:42.959Z,27.80
2023-02-19T18:45:11.484Z,27.90
2023-02-19T18:47:39.823Z,27.80
2023-02-19T18:50:08.502Z,27.80
2023-02-19T18:52:36.741Z,27.90
2023-02-19T18:55:05.396Z,27.90
2023-02-19T18:57:33.745Z,27.90
2023-02-19T19:00:01.846Z,27.90
2023-02-19T19:02:42.716Z,27.90
2023-02-19T19:05:21.297Z,27.90
2023-02-19T19:07:54.470Z,27.90
2023-02-19T19:10:23.129Z,27.90
2023-02-19T19:12:52.034Z,27.90
2023-02-19T19:15:21.095Z,27.90
2023-02-19T19:17:49.912Z,27.90
2023-02-19T19:20:23.022Z,27.90
2023-02-19T19:22:52.786Z,27.90
2023-02-19T19:25:22.334Z,27.90
2023-02-19T19:27:51.749Z,27.90
2023-02-19T19:30:20.387Z,27.90
2023-02-19T19:32:50.088Z,27.90
2023-02-19T19:35:19.443Z,27.90
2023-02-19T19:37:47.651Z,27.90
2023-02-19T19:40:34.112Z,27.90
2023-02-19T19:43:02.531Z,28.00
2023-02-19T19:45:30.536Z,28.00
2023-02-19T19:47:59.072Z,28.00
2023-02-19T19:50:27.642Z,28.00
2023-02-19T19:52:55.632Z,27.90
2023-02-19T19:55:24.031Z,28.00
2023-02-19T19:57:52.207Z,28.00
2023-02-19T20:00:21.201Z,28.00
2023-02-19T20:02:49.653Z,28.00
2023-02-19T20:05:17.677Z,28.00
2023-02-19T20:07:46.499Z,28.00
2023-02-19T20:10:15.618Z,27.90
2023-02-19T20:12:44.157Z,28.00
2023-02-19T20:15:12.342Z,28.00
2023-02-19T20:17:40.253Z,28.00
2023-02-19T20:20:09.526Z,28.00
2023-02-19T20:22:37.976Z,28.00
2023-02-19T20:25:06.635Z,28.00
2023-02-19T20:27:35.090Z,28.00
2023-02-19T20:30:03.398Z,28.00
2023-02-19T20:32:31.728Z,28.00
2023-02-19T20:34:59.840Z,28.00
2023-02-19T20:37:28.217Z,28.00
2023-02-19T20:39:56.528Z,28.00
2023-02-19T20:42:24.669Z,28.00
2023-02-19T20:44:52.961Z,28.00
2023-02-19T20:47:21.332Z,28.00
2023-02-19T20:49:49.270Z,28.00
2023-02-19T20:52:19.111Z,28.00
2023-02-19T20:54:47.707Z,28.00
2023-02-19T20:57:15.522Z,28.00
2023-02-19T20:59:43.948Z,28.00
2023-02-19T21:02:17.251Z,28.00
2023-02-19T21:04:45.820Z,28.00
2023-02-19T21:07:14.186Z,28.00
2023-02-19T21:09:42.589Z,28.00
2023-02-19T21:12:10.957Z,28.00
2023-02-19T21:14:39.236Z,28.00
2023-02-19T21:17:07.385Z,28.00
2023-02-19T21:19:35.690Z,28.00
2023-02-19T21:22:04.167Z,28.00
2023-02-19T21:24:32.225Z,28.00
2023-02-19T21:27:05.912Z,28.00
2023-02-19T21:29:34.339Z,28.10
2023-02-19T21:32:03.724Z,28.00
2023-02-19T21:34:32.060Z,28.10
2023-02-19T21:37:00.562Z,28.10
2023-02-19T21:39:28.564Z,28.10
2023-02-19T21:41:56.720Z,28.10
2023-02-19T21:44:25.555Z,28.10
2023-02-19T21:46:53.765Z,28.10
2023-02-19T21:49:22.175Z,28.10
2023-02-19T21:51:50.524Z,28.10
2023-02-19T21:54:20.262Z,28.10
2023-02-19T21:56:48.529Z,28.10
2023-02-19T21:59:17.196Z,28.10
2023-02-19T22:01:45.788Z,28.10
2023-02-19T22:04:16.487Z,28.10
2023-02-19T22:06:45.332Z,28.10
2023-02-19T22:09:15.034Z,28.10
2023-02-19T22:11:46.589Z,28.10
2023-02-19T22:14:14.936Z,28.10
2023-02-19T22:16:43.245Z,28.10
2023-02-19T22:19:12.656Z,28.10
2023-02-19T22:21:44.871Z,28.10
2023-02-19T22:24:19.739Z,28.10
2023-02-19T22:26:48.974Z,28.10
2023-02-19T22:29:20.049Z,28.10
2023-02-19T22:31:48.413Z,28.10
2023-02-19T22:34:18.359Z,28.10
2023-02-19T22:36:46.623Z,28.10
2023-02-19T22:39:24.489Z,28.10
2023-02-19T22:41:53.900Z,28.10
2023-02-19T22:44:22.372Z,28.10
2023-02-19T22:46:57.539Z,28.10
2023-02-19T22:49:25.899Z,28.10
2023-02-19T22:52:04.824Z,28.10
2023-02-19T22:54:33.189Z,28.10
2023-02-19T22:57:01.486Z,28.10
2023-02-19T22:59:29.723Z,28.10
2023-02-19T23:01:58.414Z,28.10
2023-02-19T23:04:27.882Z,28.10
2023-02-19T23:06:56.240Z,28.10
2023-02-19T23:09:28.678Z,28.10
2023-02-19T23:12:12.604Z,28.20
2023-02-19T23:14:41.053Z,28.10
2023-02-19T23:17:08.948Z,28.10
2023-02-19T23:19:37.098Z,28.10
2023-02-19T23:22:05.476Z,28.20
2023-02-19T23:24:33.966Z,28.10
2023-02-19T23:27:02.329Z,28.10
2023-02-19T23:29:30.525Z,28.10
2023-02-19T23:31:58.484Z,28.20
2023-02-19T23:34:27.019Z,28.10
2023-02-19T23:36:55.009Z,28.10
2023-02-19T23:39:23.604Z,28.10
2023-02-19T23:42:00.884Z,28.10
2023-02-19T23:44:29.114Z,28.10
2023-02-19T23:46:57.424Z,28.10
2023-02-19T23:49:25.788Z,28.10
2023-02-19T23:51:53.748Z,28.20
2023-02-19T23:54:22.151Z,28.20
2023-02-19T23:56:50.112Z,28.10
2023-02-19T23:59:18.465Z,28.10
